createdAt,value
2023-03-26T00:00:21.949Z,20.70
2023-03-26T00:02:48.467Z,20.68
2023-03-26T00:05:15.454Z,20.69
2023-03-26T00:07:42.468Z,20.68
2023-03-26T00:10:09.376Z,20.67
2023-03-26T00:12:36.327Z,20.67
2023-03-26T00:15:04.550Z,20.67
2023-03-26T00:17:31.011Z,20.67
2023-03-26T00:19:59.802Z,20.64
2023-03-26T00:22:26.553Z,20.65
2023-03-26T00:24:53.024Z,20.65
2023-03-26T00:27:19.499Z,20.64
2023-03-26T00:29:48.207Z,20.64
2023-03-26T00:32:14.602Z,20.64
2023-03-26T00:34:41.460Z,20.63
2023-03-26T00:37:08.837Z,20.64
2023-03-26T00:39:37.439Z,20.62
2023-03-26T00:42:06.836Z,20.62
2023-03-26T00:44:34.487Z,20.63
2023-03-26T00:47:00.938Z,20.61
2023-03-26T00:49:27.461Z,20.61
2023-03-26T00:51:54.008Z,20.61
2023-03-26T00:54:20.459Z,20.60
2023-03-26T00:56:47.032Z,20.63
2023-03-26T00:59:13.553Z,20.63
2023-03-26T01:01:40.369Z,20.60
2023-03-26T01:04:31.064Z,20.63
2023-03-26T01:07:00.574Z,20.63
2023-03-26T01:09:37.548Z,20.65
2023-03-26T01:12:06.660Z,20.65
2023-03-26T01:14:33.185Z,20.64
2023-03-26T01:17:01.449Z,20.64
2023-03-26T01:19:39.661Z,20.64
2023-03-26T01:22:09.642Z,20.63
2023-03-26T01:24:36.161Z,20.63
2023-03-26T01:27:04.273Z,20.64
2023-03-26T01:29:33.250Z,20.64
2023-03-26T01:32:06.420Z,20.63
2023-03-26T01:34:33.827Z,20.63
2023-03-26T01:37:20.923Z,20.62
2023-03-26T01:39:54.175Z,20.61
2023-03-26T01:42:37.648Z,20.59
2023-03-26T01:45:13.523Z,20.59
2023-03-26T01:47:41.137Z,20.58
2023-03-26T01:50:08.456Z,20.59
2023-03-26T01:52:34.896Z,20.58
2023-03-26T01:55:02.795Z,20.59
2023-03-26T01:57:45.054Z,20.59
2023-03-26T02:00:32.168Z,20.59
2023-03-26T02:02:59.386Z,20.59
2023-03-26T02:05:26.516Z,20.57
2023-03-26T02:07:58.539Z,20.57
2023-03-26T02:10:29.441Z,20.56
2023-03-26T02:12:56.507Z,20.55
2023-03-26T02:15:23.250Z,20.57
2023-03-26T02:17:49.812Z,20.56
2023-03-26T02:20:18.809Z,20.55
2023-03-26T02:22:50.093Z,20.54
2023-03-26T02:25:18.548Z,20.53
2023-03-26T02:27:45.094Z,20.54
2023-03-26T02:30:13.990Z,20.53
2023-03-26T02:32:40.502Z,20.52
2023-03-26T02:35:07.237Z,20.52
2023-03-26T02:37:36.598Z,20.51
2023-03-26T02:40:05.078Z,20.51
2023-03-26T02:42:31.507Z,20.50
2023-03-26T02:44:58.005Z,20.50
2023-03-26T02:47:24.503Z,20.49
2023-03-26T02:49:50.982Z,20.50
2023-03-26T02:52:18.708Z,20.50
2023-03-26T02:54:45.320Z,20.50
2023-03-26T02:57:12.072Z,20.49
2023-03-26T02:59:38.568Z,20.50
2023-03-26T03:02:05.075Z,20.51
2023-03-26T03:04:31.524Z,20.50
2023-03-26T03:06:57.923Z,20.51
2023-03-26T03:09:27.878Z,20.50
2023-03-26T03:11:54.392Z,20.51
2023-03-26T03:14:21.116Z,20.52
2023-03-26T03:16:47.610Z,20.52
2023-03-26T03:19:14.214Z,20.51
2023-03-26T03:21:41.370Z,20.50
2023-03-26T03:24:08.071Z,20.52
2023-03-26T03:26:36.518Z,20.53
2023-03-26T03:29:03.251Z,20.55
2023-03-26T03:31:29.762Z,20.54
2023-03-26T03:33:56.455Z,20.55
2023-03-26T03:36:22.941Z,20.55
2023-03-26T03:38:50.664Z,20.56
2023-03-26T03:41:18.567Z,20.56
2023-03-26T03:43:45.751Z,20.56
2023-03-26T03:46:12.245Z,20.58
2023-03-26T03:48:39.155Z,20.59
2023-03-26T03:51:06.194Z,20.60
2023-03-26T03:53:36.990Z,20.61
2023-03-26T03:56:04.795Z,20.61
2023-03-26T03:58:31.337Z,20.62
2023-03-26T04:01:06.412Z,20.63
2023-03-26T04:03:39.078Z,20.66
2023-03-26T04:06:06.976Z,20.65
2023-03-26T04:08:34.809Z,20.65
2023-03-26T04:11:01.953Z,20.65
2023-03-26T04:13:28.759Z,20.63
2023-03-26T04:15:55.600Z,20.62
2023-03-26T04:18:22.375Z,20.64
2023-03-26T04:20:49.316Z,20.62
2023-03-26T04:23:18.003Z,20.62
2023-03-26T04:25:48.381Z,20.61
2023-03-26T04:28:22.226Z,20.61
2023-03-26T04:30:48.922Z,20.62
2023-03-26T04:33:15.538Z,20.61
2023-03-26T04:35:44.396Z,20.60
2023-03-26T04:38:11.461Z,20.59
2023-03-26T04:40:39.060Z,20.58
2023-03-26T04:43:06.439Z,20.60
2023-03-26T04:45:32.865Z,20.59
2023-03-26T04:47:59.495Z,20.58
2023-03-26T04:50:26.701Z,20.59
2023-03-26T04:52:54.894Z,20.58
2023-03-26T04:55:24.894Z,20.58
2023-03-26T04:57:54.861Z,20.58
2023-03-26T05:00:21.497Z,20.56
2023-03-26T05:02:50.993Z,20.58
2023-03-26T05:05:17.856Z,20.58
2023-03-26T05:07:45.260Z,20.58
2023-03-26T05:10:13.503Z,20.56
2023-03-26T05:12:40.137Z,20.57
2023-03-26T05:15:06.901Z,20.55
2023-03-26T05:17:34.975Z,20.55
2023-03-26T05:20:01.666Z,20.56
2023-03-26T05:22:28.110Z,20.55
2023-03-26T05:24:54.494Z,20.55
2023-03-26T05:27:20.854Z,20.55
2023-03-26T05:29:47.301Z,20.54
2023-03-26T05:32:13.715Z,20.55
2023-03-26T05:34:40.530Z,20.54
2023-03-26T05:37:06.971Z,20.53
2023-03-26T05:39:33.852Z,20.53
2023-03-26T05:42:00.236Z,20.51
2023-03-26T05:44:26.732Z,20.51
2023-03-26T05:46:53.227Z,20.51
2023-03-26T05:49:19.663Z,20.51
2023-03-26T05:51:46.075Z,20.51
2023-03-26T05:54:12.461Z,20.51
2023-03-26T05:56:38.903Z,20.50
2023-03-26T05:59:05.382Z,20.51
2023-03-26T06:01:31.876Z,20.51
2023-03-26T06:03:58.512Z,20.51
2023-03-26T06:06:25.038Z,20.51
2023-03-26T06:09:02.329Z,20.51
2023-03-26T06:11:30.383Z,20.52
2023-03-26T06:13:56.848Z,20.51
2023-03-26T06:16:27.333Z,20.53
2023-03-26T06:18:56.585Z,20.54
2023-03-26T06:21:24.730Z,20.55
2023-03-26T06:23:51.738Z,20.55
2023-03-26T06:26:18.374Z,20.56
2023-03-26T06:28:44.767Z,20.57
2023-03-26T06:31:12.047Z,20.58
2023-03-26T06:33:38.571Z,20.59
2023-03-26T06:36:05.397Z,20.59
2023-03-26T06:38:31.853Z,20.59
2023-03-26T06:41:04.842Z,20.59
2023-03-26T06:43:33.743Z,20.58
2023-03-26T06:46:01.209Z,20.58
2023-03-26T06:48:27.653Z,20.58
2023-03-26T06:50:54.673Z,20.58
2023-03-26T06:53:21.289Z,20.58
2023-03-26T06:55:47.740Z,20.58
2023-03-26T06:58:14.193Z,20.57
2023-03-26T07:00:40.897Z,20.58
2023-03-26T07:03:07.615Z,20.58
2023-03-26T07:05:34.213Z,20.58
2023-03-26T07:08:00.734Z,20.59
2023-03-26T07:10:27.165Z,20.61
2023-03-26T07:12:53.788Z,20.64
2023-03-26T07:15:20.387Z,20.66
2023-03-26T07:17:46.835Z,20.67
2023-03-26T07:20:13.375Z,20.69
2023-03-26T07:22:40.257Z,20.72
2023-03-26T07:25:07.016Z,20.74
2023-03-26T07:27:36.892Z,20.76
2023-03-26T07:30:06.609Z,20.78
2023-03-26T07:32:33.020Z,20.82
2023-03-26T07:34:59.450Z,20.83
2023-03-26T07:37:31.702Z,20.86
2023-03-26T07:40:18.766Z,20.85
2023-03-26T07:43:00.379Z,20.87
2023-03-26T07:45:33.921Z,20.86
2023-03-26T07:48:00.855Z,20.88
2023-03-26T07:50:27.416Z,20.87
2023-03-26T07:52:53.970Z,20.89
2023-03-26T07:55:20.920Z,20.89
2023-03-26T07:58:19.518Z,20.91
2023-03-26T08:00:48.609Z,20.89
2023-03-26T08:03:15.090Z,20.91
2023-03-26T08:06:00.129Z,20.92
2023-03-26T08:08:29.293Z,20.91
2023-03-26T08:10:55.954Z,20.88
2023-03-26T08:13:42.841Z,20.90
2023-03-26T08:16:23.342Z,20.89
2023-03-26T08:19:03.443Z,20.88
2023-03-26T08:21:39.687Z,20.88
2023-03-26T08:24:16.297Z,20.88
2023-03-26T08:26:49.084Z,20.89
2023-03-26T08:29:38.632Z,20.88
2023-03-26T08:32:09.481Z,20.89
2023-03-26T08:34:36.310Z,20.89
2023-03-26T08:37:02.763Z,20.87
2023-03-26T08:39:29.202Z,20.87
2023-03-26T08:42:10.719Z,20.86
2023-03-26T08:44:47.584Z,20.87
2023-03-26T08:47:14.016Z,20.88
2023-03-26T08:49:40.506Z,20.87
2023-03-26T08:52:25.708Z,20.86
2023-03-26T08:55:04.599Z,20.87
2023-03-26T08:57:49.261Z,20.85
2023-03-26T09:00:36.168Z,20.88
2023-03-26T09:03:16.476Z,20.89
2023-03-26T09:05:46.612Z,20.88
2023-03-26T09:08:31.330Z,20.89
2023-03-26T09:11:13.136Z,20.88
2023-03-26T09:14:02.393Z,20.88
2023-03-26T09:16:28.818Z,20.88
2023-03-26T09:19:11.564Z,20.89
2023-03-26T09:21:44.024Z,20.87
2023-03-26T09:24:42.962Z,20.87
2023-03-26T09:27:10.978Z,20.87
2023-03-26T09:29:46.286Z,20.86
2023-03-26T09:32:22.010Z,20.89
2023-03-26T09:34:51.239Z,20.91
2023-03-26T09:37:25.026Z,20.96
2023-03-26T09:39:51.520Z,20.97
2023-03-26T09:42:24.369Z,20.99
2023-03-26T09:44:50.829Z,21.00
2023-03-26T09:47:39.296Z,21.01
2023-03-26T09:50:38.342Z,21.02
2023-03-26T09:53:07.606Z,21.01
2023-03-26T09:55:52.908Z,21.01
2023-03-26T09:58:38.011Z,21.02
2023-03-26T10:01:32.310Z,21.01
2023-03-26T10:04:07.963Z,21.02
2023-03-26T10:06:54.458Z,21.03
2023-03-26T10:09:38.545Z,21.02
2023-03-26T10:12:07.788Z,21.01
2023-03-26T10:14:53.491Z,21.01
2023-03-26T10:17:40.937Z,21.00
2023-03-26T10:20:17.838Z,21.01
2023-03-26T10:22:47.200Z,21.01
2023-03-26T10:25:36.253Z,21.00
2023-03-26T10:28:18.016Z,20.99
2023-03-26T10:30:44.431Z,20.98
2023-03-26T10:33:18.308Z,20.97
2023-03-26T10:35:50.772Z,20.97
2023-03-26T10:38:32.345Z,20.98
2023-03-26T10:41:20.455Z,20.95
2023-03-26T10:44:08.806Z,20.95
2023-03-26T10:46:53.686Z,20.96
2023-03-26T10:49:26.227Z,20.96
2023-03-26T10:51:56.079Z,20.95
2023-03-26T10:54:34.567Z,20.96
2023-03-26T10:57:04.176Z,20.96
2023-03-26T10:59:30.804Z,20.96
2023-03-26T11:02:06.317Z,20.97
2023-03-26T11:04:32.689Z,20.97
2023-03-26T11:06:59.147Z,20.96
2023-03-26T11:09:32.242Z,20.95
2023-03-26T11:12:26.977Z,20.95
2023-03-26T11:15:04.223Z,20.95
2023-03-26T11:17:46.319Z,20.95
2023-03-26T11:20:12.769Z,20.95
2023-03-26T11:22:46.696Z,20.94
2023-03-26T11:25:25.136Z,20.96
2023-03-26T11:28:11.668Z,20.96
2023-03-26T11:30:41.489Z,20.95
2023-03-26T11:33:10.704Z,20.95
2023-03-26T11:35:41.042Z,20.95
2023-03-26T11:38:25.534Z,20.94
2023-03-26T11:40:57.009Z,20.95
2023-03-26T11:43:30.641Z,20.95
2023-03-26T11:45:57.438Z,20.96
2023-03-26T11:48:30.017Z,20.96
2023-03-26T11:51:08.148Z,20.96
2023-03-26T11:53:38.615Z,20.96
2023-03-26T11:56:05.113Z,20.96
2023-03-26T11:58:34.334Z,20.95
2023-03-26T12:01:04.428Z,20.95
2023-03-26T12:03:31.995Z,20.95
2023-03-26T12:05:59.570Z,20.93
2023-03-26T12:08:34.661Z,20.94
2023-03-26T12:11:09.274Z,20.93
2023-03-26T12:13:38.944Z,20.95
2023-03-26T12:16:14.081Z,20.95
2023-03-26T12:18:43.242Z,20.94
2023-03-26T12:21:10.194Z,20.95
2023-03-26T12:23:56.322Z,20.93
2023-03-26T12:26:42.808Z,20.91
2023-03-26T12:29:11.050Z,20.93
2023-03-26T12:31:57.292Z,20.92
2023-03-26T12:34:30.776Z,20.93
2023-03-26T12:37:00.087Z,20.94
2023-03-26T12:40:07.852Z,20.96
2023-03-26T12:44:51.383Z,20.98
2023-03-26T12:45:20.135Z,21.00
2023-03-26T12:48:01.246Z,21.03
2023-03-26T12:50:42.775Z,21.04
2023-03-26T12:53:24.518Z,21.06
2023-03-26T12:55:54.095Z,21.08
2023-03-26T12:58:26.300Z,21.11
2023-03-26T13:00:53.391Z,21.14
2023-03-26T13:03:34.447Z,21.17
2023-03-26T13:06:22.842Z,21.18
2023-03-26T13:09:02.835Z,21.19
2023-03-26T13:11:38.136Z,21.22
2023-03-26T13:14:16.628Z,21.23
2023-03-26T13:17:01.739Z,21.27
2023-03-26T13:19:35.145Z,21.28
2023-03-26T13:22:15.070Z,21.30
2023-03-26T13:25:09.710Z,21.33
2023-03-26T13:27:57.506Z,21.36
2023-03-26T13:30:26.804Z,21.38
2023-03-26T13:33:05.326Z,21.38
2023-03-26T13:35:31.788Z,21.41
2023-03-26T13:37:58.280Z,21.42
2023-03-26T13:40:38.654Z,21.44
2023-03-26T13:43:25.369Z,21.44
2023-03-26T13:45:54.624Z,21.44
2023-03-26T13:48:27.022Z,21.44
2023-03-26T13:51:01.975Z,21.44
2023-03-26T13:53:42.534Z,21.45
2023-03-26T13:56:12.666Z,21.50
2023-03-26T13:58:43.095Z,21.56
2023-03-26T14:01:12.675Z,21.64
2023-03-26T14:03:45.500Z,21.72
2023-03-26T14:06:16.805Z,21.79
2023-03-26T14:08:46.592Z,21.84
2023-03-26T14:11:16.265Z,21.90
2023-03-26T14:13:51.696Z,21.96
2023-03-26T14:16:23.530Z,22.01
2023-03-26T14:18:59.267Z,22.05
2023-03-26T14:21:34.880Z,22.09
2023-03-26T14:24:13.514Z,22.14
2023-03-26T14:26:43.469Z,22.17
2023-03-26T14:29:14.394Z,22.21
2023-03-26T14:31:47.490Z,22.24
2023-03-26T14:34:15.029Z,22.26
2023-03-26T14:36:50.953Z,22.29
2023-03-26T14:39:26.503Z,22.31
2023-03-26T14:41:56.302Z,22.32
2023-03-26T14:44:48.177Z,22.34
2023-03-26T14:47:15.918Z,22.36
2023-03-26T14:49:43.747Z,22.37
2023-03-26T14:52:15.858Z,22.38
2023-03-26T14:54:43.913Z,22.38
2023-03-26T14:57:25.320Z,22.38
2023-03-26T14:59:51.848Z,22.40
2023-03-26T15:02:44.378Z,22.41
2023-03-26T15:05:29.197Z,22.43
2023-03-26T15:08:01.737Z,22.45
2023-03-26T15:10:43.599Z,22.45
2023-03-26T15:13:28.690Z,22.47
2023-03-26T15:16:04.653Z,22.44
2023-03-26T15:18:47.936Z,22.43
2023-03-26T15:21:14.334Z,22.41
2023-03-26T15:23:47.354Z,22.40
2023-03-26T15:26:37.111Z,22.34
2023-03-26T15:29:12.340Z,22.24
2023-03-26T15:31:42.661Z,22.13
2023-03-26T15:34:18.452Z,22.05
2023-03-26T15:36:50.900Z,21.96
2023-03-26T15:39:17.758Z,21.88
2023-03-26T15:41:59.964Z,21.81
2023-03-26T15:44:36.145Z,21.72
2023-03-26T15:47:29.416Z,21.64
2023-03-26T15:50:16.179Z,21.57
2023-03-26T15:53:00.881Z,21.51
2023-03-26T15:55:36.176Z,21.46
2023-03-26T15:58:14.930Z,21.42
2023-03-26T16:00:50.110Z,21.40
2023-03-26T16:03:25.634Z,21.38
2023-03-26T16:06:14.149Z,21.35
2023-03-26T16:08:53.229Z,21.32
2023-03-26T16:11:38.407Z,21.30
2023-03-26T16:14:10.794Z,21.28
2023-03-26T16:16:54.388Z,21.24
2023-03-26T16:19:20.828Z,21.22
2023-03-26T16:22:00.201Z,21.21
2023-03-26T16:24:28.795Z,21.19
2023-03-26T16:26:55.424Z,21.17
2023-03-26T16:29:28.045Z,21.16
2023-03-26T16:32:03.501Z,21.14
2023-03-26T16:34:38.955Z,21.12
2023-03-26T16:37:08.010Z,21.10
2023-03-26T16:39:39.303Z,21.10
2023-03-26T16:42:19.544Z,21.08
2023-03-26T16:45:04.933Z,21.08
2023-03-26T16:47:44.840Z,21.06
2023-03-26T16:50:14.391Z,21.05
2023-03-26T16:52:45.173Z,21.03
2023-03-26T16:55:26.961Z,21.03
2023-03-26T16:57:56.384Z,21.01
2023-03-26T17:00:43.144Z,21.00
2023-03-26T17:03:28.451Z,20.99
2023-03-26T17:05:56.543Z,20.98
2023-03-26T17:08:36.048Z,20.97
2023-03-26T17:11:21.830Z,20.95
2023-03-26T17:13:54.645Z,20.95
2023-03-26T17:16:29.575Z,20.92
2023-03-26T17:19:04.270Z,20.89
2023-03-26T17:21:46.916Z,20.89
2023-03-26T17:24:29.102Z,20.87
2023-03-26T17:27:01.357Z,20.86
2023-03-26T17:29:33.893Z,20.84
2023-03-26T17:32:03.297Z,20.84
2023-03-26T17:34:39.114Z,20.83
2023-03-26T17:37:09.864Z,20.82
2023-03-26T17:39:39.053Z,20.80
2023-03-26T17:42:25.827Z,20.79
2023-03-26T17:44:53.714Z,20.78
2023-03-26T17:47:26.301Z,20.78
2023-03-26T17:50:04.581Z,20.76
2023-03-26T17:52:35.668Z,20.74
2023-03-26T17:55:02.870Z,20.73
2023-03-26T17:57:40.158Z,20.73
2023-03-26T18:00:09.275Z,20.72
2023-03-26T18:02:38.056Z,20.69
2023-03-26T18:05:08.192Z,20.69
2023-03-26T18:07:34.629Z,20.69
2023-03-26T18:10:01.134Z,20.67
2023-03-26T18:12:30.428Z,20.66
2023-03-26T18:15:11.848Z,20.64
2023-03-26T18:17:46.324Z,20.64
2023-03-26T18:20:23.381Z,20.63
2023-03-26T18:22:50.875Z,20.61
2023-03-26T18:25:22.834Z,20.61
2023-03-26T18:27:49.388Z,20.60
2023-03-26T18:30:17.637Z,20.58
2023-03-26T18:32:50.944Z,20.57
2023-03-26T18:35:20.402Z,20.57
2023-03-26T18:37:49.221Z,20.56
2023-03-26T18:40:21.042Z,20.54
2023-03-26T18:42:49.019Z,20.54
2023-03-26T18:45:34.339Z,20.52
2023-03-26T18:48:13.683Z,20.51
2023-03-26T18:50:41.968Z,20.51
2023-03-26T18:53:20.608Z,20.50
2023-03-26T18:55:47.871Z,20.48
2023-03-26T18:58:28.121Z,20.47
2023-03-26T19:00:59.399Z,20.46
2023-03-26T19:03:26.842Z,20.45
2023-03-26T19:05:54.553Z,20.44
2023-03-26T19:08:23.738Z,20.44
2023-03-26T19:10:51.084Z,20.44
2023-03-26T19:13:20.043Z,20.41
2023-03-26T19:15:47.495Z,20.41
2023-03-26T19:18:18.044Z,20.40
2023-03-26T19:21:04.445Z,20.40
2023-03-26T19:23:38.735Z,20.39
2023-03-26T19:26:06.482Z,20.37
2023-03-26T19:28:37.821Z,20.36
2023-03-26T19:31:16.067Z,20.35
2023-03-26T19:33:43.149Z,20.36
2023-03-26T19:36:17.965Z,20.35
2023-03-26T19:38:54.801Z,20.36
2023-03-26T19:41:26.569Z,20.35
2023-03-26T19:43:55.883Z,20.34
2023-03-26T19:46:23.477Z,20.34
2023-03-26T19:48:52.475Z,20.33
2023-03-26T19:51:21.360Z,20.32
2023-03-26T19:53:49.777Z,20.31
2023-03-26T19:56:18.610Z,20.29
2023-03-26T19:58:45.250Z,20.30
2023-03-26T20:01:32.142Z,20.29
2023-03-26T20:04:01.127Z,20.29
2023-03-26T20:06:42.270Z,20.29
2023-03-26T20:09:11.199Z,20.27
2023-03-26T20:11:39.714Z,20.27
2023-03-26T20:14:12.741Z,20.27
2023-03-26T20:16:40.036Z,20.26
2023-03-26T20:19:07.100Z,20.26
2023-03-26T20:21:34.739Z,20.26
2023-03-26T20:24:01.426Z,20.24
2023-03-26T20:26:27.874Z,20.23
2023-03-26T20:28:54.246Z,20.24
2023-03-26T20:31:22.784Z,20.24
2023-03-26T20:33:49.494Z,20.23
2023-03-26T20:36:33.803Z,20.22
2023-03-26T20:39:01.514Z,20.22
2023-03-26T20:41:29.000Z,20.21
2023-03-26T20:43:55.684Z,20.20
2023-03-26T20:46:23.312Z,20.19
2023-03-26T20:48:58.027Z,20.20
2023-03-26T20:51:24.585Z,20.20
2023-03-26T20:53:51.056Z,20.18
2023-03-26T20:56:18.874Z,20.18
2023-03-26T20:58:45.734Z,20.17
2023-03-26T21:01:13.593Z,20.17
2023-03-26T21:03:40.991Z,20.14
2023-03-26T21:06:14.917Z,20.14
2023-03-26T21:08:42.234Z,20.14
2023-03-26T21:11:26.297Z,20.14
2023-03-26T21:13:59.894Z,20.12
2023-03-26T21:16:26.834Z,20.11
2023-03-26T21:18:53.534Z,20.12
2023-03-26T21:21:39.104Z,20.11
2023-03-26T21:24:18.142Z,20.11
2023-03-26T21:27:01.009Z,20.10
2023-03-26T21:29:27.997Z,20.08
2023-03-26T21:31:55.367Z,20.09
2023-03-26T21:34:22.638Z,20.08
2023-03-26T21:36:49.232Z,20.08
2023-03-26T21:39:16.537Z,20.07
2023-03-26T21:42:05.342Z,20.07
2023-03-26T21:44:32.600Z,20.06
2023-03-26T21:46:59.165Z,20.06
2023-03-26T21:49:25.843Z,20.04
2023-03-26T21:51:52.344Z,20.05
2023-03-26T21:54:22.000Z,20.08
2023-03-26T21:57:03.502Z,20.12
2023-03-26T21:59:32.703Z,20.16
2023-03-26T22:02:17.713Z,20.21
2023-03-26T22:05:13.784Z,20.24
2023-03-26T22:07:49.373Z,20.26
2023-03-26T22:10:16.282Z,20.27
2023-03-26T22:12:42.707Z,20.25
2023-03-26T22:15:09.296Z,20.27
2023-03-26T22:17:35.740Z,20.27
2023-03-26T22:20:08.834Z,20.27
2023-03-26T22:22:35.433Z,20.26
2023-03-26T22:25:02.094Z,20.24
2023-03-26T22:27:28.488Z,20.24
2023-03-26T22:29:55.100Z,20.22
2023-03-26T22:32:21.593Z,20.21
2023-03-26T22:34:48.085Z,20.21
2023-03-26T22:37:16.254Z,20.19
2023-03-26T22:39:42.944Z,20.19
2023-03-26T22:42:09.341Z,20.17
2023-03-26T22:44:36.091Z,20.15
2023-03-26T22:47:02.529Z,20.15
2023-03-26T22:49:30.285Z,20.15
2023-03-26T22:51:57.138Z,20.12
2023-03-26T22:54:23.586Z,20.11
2023-03-26T22:56:52.208Z,20.11
2023-03-26T22:59:19.041Z,20.09
2023-03-26T23:01:45.906Z,20.09
2023-03-26T23:04:12.965Z,20.07
2023-03-26T23:06:58.577Z,20.07
2023-03-26T23:09:25.090Z,20.05
2023-03-26T23:11:51.778Z,20.04
2023-03-26T23:14:19.132Z,20.03
2023-03-26T23:16:48.560Z,20.04
2023-03-26T23:19:14.983Z,20.01
2023-03-26T23:21:41.379Z,20.01
2023-03-26T23:24:08.186Z,19.99
2023-03-26T23:26:43.932Z,20.00
2023-03-26T23:29:16.493Z,19.98
2023-03-26T23:31:43.053Z,19.97
2023-03-26T23:34:10.130Z,19.97
2023-03-26T23:36:36.562Z,19.96
2023-03-26T23:39:04.669Z,19.95
2023-03-26T23:41:31.327Z,19.95
2023-03-26T23:43:57.744Z,19.93
2023-03-26T23:46:25.150Z,19.93
2023-03-26T23:48:52.162Z,19.93
2023-03-26T23:51:22.411Z,19.92
2023-03-26T23:53:49.495Z,19.89
2023-03-26T23:56:16.500Z,19.93
2023-03-26T23:58:43.299Z,19.93
